createdAt,value
2018-03-09T00:01:11.467Z,2.30
2018-03-09T00:03:39.074Z,2.57
2018-03-09T00:06:06.706Z,2.13
2018-03-09T00:08:34.299Z,2.23
2018-03-09T00:11:01.940Z,2.00
2018-03-09T00:13:29.547Z,3.00
2018-03-09T00:15:57.175Z,1.90
2018-03-09T00:18:24.801Z,2.30
2018-03-09T00:20:52.432Z,1.73
2018-03-09T00:23:20.053Z,1.87
2018-03-09T00:25:47.714Z,1.93
2018-03-09T00:28:15.345Z,2.20
2018-03-09T00:30:42.988Z,2.57
2018-03-09T00:33:10.623Z,2.47
2018-03-09T00:35:38.249Z,2.10
2018-03-09T00:38:05.842Z,2.70
2018-03-09T00:40:33.471Z,2.37
2018-03-09T00:43:01.075Z,3.27
2018-03-09T00:45:28.735Z,2.93
2018-03-09T00:47:56.347Z,2.60
2018-03-09T00:50:23.980Z,2.00
2018-03-09T00:52:51.573Z,2.70
2018-03-09T00:55:19.199Z,2.70
2018-03-09T00:57:46.787Z,2.30
2018-03-09T01:00:14.410Z,2.03
2018-03-09T01:02:42.022Z,2.47
2018-03-09T01:05:09.648Z,2.50
2018-03-09T01:07:37.238Z,2.07
2018-03-09T01:10:04.858Z,1.80
2018-03-09T01:12:32.462Z,2.47
2018-03-09T01:15:00.070Z,2.40
2018-03-09T01:17:27.662Z,2.67
2018-03-09T01:19:55.286Z,2.13
2018-03-09T01:22:22.873Z,2.57
2018-03-09T01:24:50.493Z,2.07
2018-03-09T01:27:18.079Z,1.60
2018-03-09T01:29:45.678Z,1.87
2018-03-09T01:32:13.257Z,2.70
2018-03-09T01:34:40.905Z,3.10
2018-03-09T01:37:08.514Z,2.20
2018-03-09T01:39:36.123Z,2.43
2018-03-09T01:42:03.903Z,2.57
2018-03-09T01:44:31.505Z,2.37
2018-03-09T01:46:59.109Z,2.63
2018-03-09T01:49:26.706Z,2.87
2018-03-09T01:51:54.290Z,2.87
2018-03-09T01:54:21.901Z,2.70
2018-03-09T01:56:49.487Z,2.67
2018-03-09T01:59:17.087Z,2.20
2018-03-09T02:01:44.670Z,2.93
2018-03-09T02:04:12.392Z,3.50
2018-03-09T02:06:40.019Z,3.40
2018-03-09T02:09:07.758Z,2.77
2018-03-09T02:11:35.333Z,3.20
2018-03-09T02:14:02.934Z,3.17
2018-03-09T02:16:30.544Z,3.10
2018-03-09T02:18:58.118Z,3.53
2018-03-09T02:21:25.727Z,4.53
2018-03-09T02:23:53.316Z,3.23
2018-03-09T02:26:20.933Z,2.80
2018-03-09T02:28:48.546Z,3.33
2018-03-09T02:31:16.171Z,2.50
2018-03-09T02:33:43.767Z,3.77
2018-03-09T02:36:11.371Z,2.40
2018-03-09T02:38:39.047Z,3.30
2018-03-09T02:41:06.665Z,4.00
2018-03-09T02:43:34.256Z,3.10
2018-03-09T02:46:01.942Z,3.33
2018-03-09T02:48:29.591Z,3.03
2018-03-09T02:50:57.208Z,3.33
2018-03-09T02:53:24.798Z,3.70
2018-03-09T02:55:52.486Z,3.03
2018-03-09T02:58:20.077Z,3.30
2018-03-09T03:00:47.838Z,3.40
2018-03-09T03:03:15.449Z,4.30
2018-03-09T03:05:43.153Z,3.80
2018-03-09T03:08:10.744Z,3.70
2018-03-09T03:10:38.426Z,2.35
2018-03-09T03:13:06.078Z,2.45
2018-03-09T03:15:33.814Z,2.93
2018-03-09T03:18:01.394Z,2.93
2018-03-09T03:20:29.080Z,2.42
2018-03-09T03:22:56.779Z,3.08
2018-03-09T03:25:24.385Z,2.60
2018-03-09T03:27:51.986Z,2.23
2018-03-09T03:30:19.602Z,2.97
2018-03-09T03:32:47.271Z,3.08
2018-03-09T03:35:14.934Z,2.33
2018-03-09T03:37:42.519Z,3.37
2018-03-09T03:40:10.139Z,3.57
2018-03-09T03:42:37.738Z,3.03
2018-03-09T03:45:05.390Z,3.40
2018-03-09T03:47:33.009Z,3.43
2018-03-09T03:50:00.632Z,3.47
2018-03-09T03:52:28.203Z,3.33
2018-03-09T03:54:55.827Z,3.60
2018-03-09T03:57:23.435Z,2.97
2018-03-09T03:59:51.039Z,3.47
2018-03-09T04:02:18.698Z,3.03
2018-03-09T04:04:46.313Z,3.27
2018-03-09T04:07:13.950Z,3.65
2018-03-09T04:09:41.657Z,3.75
2018-03-09T04:12:09.325Z,3.40
2018-03-09T04:14:37.007Z,3.70
2018-03-09T04:17:04.659Z,4.05
2018-03-09T04:19:32.259Z,4.27
2018-03-09T04:21:59.913Z,3.65
2018-03-09T04:24:27.615Z,3.55
2018-03-09T04:26:55.341Z,3.08
2018-03-09T04:29:23.031Z,4.25
2018-03-09T04:31:50.692Z,3.78
2018-03-09T04:34:18.374Z,3.60
2018-03-09T04:36:46.038Z,3.85
2018-03-09T04:39:13.767Z,3.50
2018-03-09T04:41:41.438Z,3.40
2018-03-09T04:44:09.181Z,3.40
2018-03-09T04:46:36.766Z,3.40
2018-03-09T04:49:04.528Z,4.37
2018-03-09T04:51:32.194Z,4.15
2018-03-09T04:53:59.885Z,3.45
2018-03-09T04:56:27.562Z,3.67
2018-03-09T04:58:55.242Z,3.90
2018-03-09T05:01:22.830Z,3.87
2018-03-09T05:03:50.530Z,5.93
2018-03-09T05:06:18.234Z,13.20
2018-03-09T05:08:45.929Z,4.78
2018-03-09T05:11:13.515Z,3.10
2018-03-09T05:13:41.132Z,3.87
2018-03-09T05:16:08.823Z,3.92
2018-03-09T05:18:36.517Z,4.10
2018-03-09T05:21:04.207Z,3.97
2018-03-09T05:23:31.888Z,3.95
2018-03-09T05:25:59.618Z,4.57
2018-03-09T05:28:27.333Z,4.65
2018-03-09T05:30:55.049Z,3.90
2018-03-09T05:33:22.735Z,4.47
2018-03-09T05:35:50.332Z,15.33
2018-03-09T05:38:18.023Z,5.47
2018-03-09T05:40:45.705Z,4.25
2018-03-09T05:43:13.430Z,3.65
2018-03-09T05:45:41.087Z,4.90
2018-03-09T05:48:08.731Z,4.20
2018-03-09T05:50:36.310Z,3.77
2018-03-09T05:53:03.934Z,4.67
2018-03-09T05:55:31.672Z,4.10
2018-03-09T05:57:59.365Z,4.30
2018-03-09T06:00:27.006Z,4.85
2018-03-09T06:02:54.654Z,5.10
2018-03-09T06:05:22.326Z,5.00
2018-03-09T06:07:49.989Z,4.40
2018-03-09T06:10:17.610Z,4.47
2018-03-09T06:12:45.381Z,4.50
2018-03-09T06:15:13.080Z,5.15
2018-03-09T06:17:40.750Z,4.53
2018-03-09T06:20:08.503Z,5.75
2018-03-09T06:22:36.183Z,5.25
2018-03-09T06:25:03.962Z,4.72
2018-03-09T06:27:31.631Z,4.90
2018-03-09T06:29:59.366Z,5.37
2018-03-09T06:32:27.022Z,4.40
2018-03-09T06:34:54.731Z,5.33
2018-03-09T06:37:22.385Z,6.57
2018-03-09T06:39:50.022Z,4.97
2018-03-09T06:42:17.714Z,5.30
2018-03-09T06:44:45.351Z,6.57
2018-03-09T06:47:12.931Z,5.67
2018-03-09T06:49:40.621Z,5.43
2018-03-09T06:52:08.203Z,5.80
2018-03-09T06:54:35.970Z,5.45
2018-03-09T06:57:03.588Z,5.27
2018-03-09T06:59:31.293Z,6.12
2018-03-09T07:01:58.874Z,5.90
2018-03-09T07:04:26.523Z,7.10
2018-03-09T07:06:54.106Z,7.40
2018-03-09T07:09:21.735Z,6.80
2018-03-09T07:11:49.442Z,6.03
2018-03-09T07:14:17.219Z,5.77
2018-03-09T07:16:44.868Z,8.40
2018-03-09T07:19:14.150Z,6.20
2018-03-09T07:21:41.790Z,6.13
2018-03-09T07:24:09.414Z,6.47
2018-03-09T07:26:37.018Z,7.33
2018-03-09T07:29:04.698Z,5.78
2018-03-09T07:31:32.287Z,7.73
2018-03-09T07:33:59.908Z,7.40
2018-03-09T07:36:27.496Z,6.43
2018-03-09T07:38:55.123Z,7.10
2018-03-09T07:41:22.726Z,6.40
2018-03-09T07:43:50.364Z,7.77
2018-03-09T07:46:17.999Z,8.07
2018-03-09T07:48:45.770Z,6.35
2018-03-09T07:51:13.356Z,6.83
2018-03-09T07:53:40.996Z,7.53
2018-03-09T07:56:08.783Z,7.60
2018-03-09T07:58:36.519Z,8.32
2018-03-09T08:01:04.107Z,7.70
2018-03-09T08:03:31.724Z,7.13
2018-03-09T08:05:59.310Z,6.83
2018-03-09T08:08:26.972Z,7.90
2018-03-09T08:10:54.576Z,8.50
2018-03-09T08:13:22.223Z,7.70
2018-03-09T08:15:49.852Z,7.43
2018-03-09T08:18:17.471Z,9.17
2018-03-09T08:20:45.079Z,7.63
2018-03-09T08:23:12.710Z,7.70
2018-03-09T08:25:40.311Z,8.93
2018-03-09T08:28:08.030Z,7.90
2018-03-09T08:30:35.643Z,8.37
2018-03-09T08:33:03.337Z,8.37
2018-03-09T08:35:30.931Z,8.07
2018-03-09T08:37:58.553Z,7.80
2018-03-09T08:40:26.242Z,7.77
2018-03-09T08:42:53.887Z,7.27
2018-03-09T08:45:21.486Z,8.20
2018-03-09T08:47:49.136Z,8.93
2018-03-09T08:50:16.731Z,7.83
2018-03-09T08:52:44.362Z,8.80
2018-03-09T08:55:11.953Z,9.20
2018-03-09T08:57:39.593Z,9.60
2018-03-09T09:00:07.350Z,9.27
2018-03-09T09:02:35.014Z,9.07
2018-03-09T09:05:02.615Z,8.87
2018-03-09T09:07:30.238Z,7.53
2018-03-09T09:09:57.836Z,9.33
2018-03-09T09:12:25.578Z,9.80
2018-03-09T09:14:53.165Z,9.47
2018-03-09T09:17:20.815Z,10.03
2018-03-09T09:19:48.803Z,8.67
2018-03-09T09:22:16.407Z,9.70
2018-03-09T09:24:44.059Z,10.20
2018-03-09T09:27:11.716Z,8.37
2018-03-09T09:29:39.341Z,7.50
2018-03-09T09:32:06.936Z,8.57
2018-03-09T09:34:34.558Z,7.93
2018-03-09T09:37:02.506Z,7.33
2018-03-09T09:39:30.136Z,7.53
2018-03-09T09:41:57.730Z,8.47
2018-03-09T09:44:25.346Z,6.77
2018-03-09T09:46:52.979Z,6.07
2018-03-09T09:49:20.616Z,7.27
2018-03-09T09:51:48.198Z,7.07
2018-03-09T09:54:15.830Z,6.40
2018-03-09T09:56:43.446Z,6.53
2018-03-09T09:59:11.083Z,7.43
2018-03-09T10:01:38.676Z,5.60
2018-03-09T10:04:06.301Z,7.30
2018-03-09T10:06:34.006Z,8.17
2018-03-09T10:09:01.847Z,8.17
2018-03-09T10:11:29.421Z,8.30
2018-03-09T10:13:57.039Z,6.90
2018-03-09T10:16:24.643Z,8.80
2018-03-09T10:18:52.338Z,8.40
2018-03-09T10:21:19.931Z,8.37
2018-03-09T10:23:47.554Z,6.83
2018-03-09T10:26:15.166Z,8.03
2018-03-09T10:28:42.904Z,7.20
2018-03-09T10:31:10.488Z,5.20
2018-03-09T10:33:38.142Z,7.43
2018-03-09T10:36:05.760Z,7.53
2018-03-09T10:38:33.408Z,4.83
2018-03-09T10:41:01.022Z,3.50
2018-03-09T10:43:28.643Z,3.80
2018-03-09T10:45:56.266Z,3.70
2018-03-09T10:48:23.933Z,3.53
2018-03-09T10:50:51.555Z,4.30
2018-03-09T10:53:19.510Z,4.37
2018-03-09T10:55:47.123Z,4.47
2018-03-09T10:58:14.758Z,4.40
2018-03-09T11:00:47.886Z,3.07
2018-03-09T11:03:15.511Z,4.13
2018-03-09T11:05:43.128Z,3.53
2018-03-09T11:08:11.271Z,2.90
2018-03-09T11:10:38.878Z,3.20
2018-03-09T11:13:06.535Z,5.33
2018-03-09T11:15:34.189Z,3.93
2018-03-09T11:18:01.852Z,4.47
2018-03-09T11:20:29.459Z,2.53
2018-03-09T11:22:57.322Z,3.30
2018-03-09T11:25:25.159Z,2.40
2018-03-09T11:27:52.784Z,3.00
2018-03-09T11:30:20.476Z,2.10
2018-03-09T11:32:48.156Z,3.37
2018-03-09T11:35:15.759Z,3.10
2018-03-09T11:37:43.394Z,2.77
2018-03-09T11:40:10.990Z,2.60
2018-03-09T11:42:38.644Z,2.70
2018-03-09T11:45:06.246Z,2.80
2018-03-09T11:47:34.075Z,3.07
2018-03-09T11:50:01.775Z,1.90
2018-03-09T11:52:29.410Z,1.87
2018-03-09T11:54:57.018Z,1.90
2018-03-09T11:57:24.642Z,2.83
2018-03-09T11:59:53.056Z,4.20
2018-03-09T12:02:20.675Z,3.27
2018-03-09T12:04:48.263Z,3.27
2018-03-09T12:07:16.057Z,3.80
2018-03-09T12:09:43.676Z,3.50
2018-03-09T12:12:11.319Z,3.33
2018-03-09T12:14:38.910Z,5.37
2018-03-09T12:17:06.570Z,4.57
2018-03-09T12:19:34.165Z,4.63
2018-03-09T12:22:01.804Z,4.00
2018-03-09T12:24:29.428Z,4.77
2018-03-09T12:26:57.034Z,5.50
2018-03-09T12:29:24.667Z,4.50
2018-03-09T12:31:52.366Z,3.67
2018-03-09T12:34:19.983Z,5.10
2018-03-09T12:36:47.619Z,4.70
2018-03-09T12:39:15.227Z,4.20
2018-03-09T12:41:42.853Z,5.00
2018-03-09T12:44:10.454Z,5.13
2018-03-09T12:46:38.107Z,5.20
2018-03-09T12:49:05.711Z,3.93
2018-03-09T12:51:33.362Z,4.20
2018-03-09T12:54:00.962Z,4.47
2018-03-09T12:56:28.806Z,4.13
2018-03-09T12:58:56.450Z,3.50
2018-03-09T13:01:24.042Z,5.20
2018-03-09T13:03:51.662Z,3.30
2018-03-09T13:06:19.366Z,3.70
2018-03-09T13:11:43.489Z,3.80
2018-03-09T13:14:21.911Z,4.33
2018-03-09T13:16:53.477Z,3.93
2018-03-09T13:19:21.092Z,3.50
2018-03-09T13:21:48.730Z,3.90
2018-03-09T13:24:16.335Z,4.27
2018-03-09T13:26:43.964Z,4.30
2018-03-09T13:29:11.599Z,5.20
2018-03-09T13:31:39.248Z,3.83
2018-03-09T13:34:06.844Z,4.27
2018-03-09T13:36:34.504Z,3.50
2018-03-09T13:39:02.112Z,4.03
2018-03-09T13:41:29.778Z,5.57
2018-03-09T13:43:57.417Z,5.90
2018-03-09T13:46:25.010Z,5.00
2018-03-09T13:48:52.634Z,5.20
2018-03-09T13:51:20.283Z,5.30
2018-03-09T13:53:47.908Z,4.60
2018-03-09T13:56:15.618Z,6.43
2018-03-09T13:58:43.251Z,12.70
2018-03-09T14:01:10.840Z,5.30
2018-03-09T14:03:38.565Z,5.40
2018-03-09T14:06:06.165Z,4.50
2018-03-09T14:08:33.880Z,4.43
2018-03-09T14:11:01.747Z,4.80
2018-03-09T14:13:29.395Z,5.83
2018-03-09T14:15:57.026Z,4.27
2018-03-09T14:18:24.673Z,4.00
2018-03-09T14:20:52.375Z,4.77
2018-03-09T14:23:19.887Z,5.00
2018-03-09T14:25:47.613Z,4.63
2018-03-09T14:28:15.303Z,5.10
2018-03-09T14:30:42.880Z,5.80
2018-03-09T14:33:10.513Z,4.40
2018-03-09T14:35:38.120Z,4.83
2018-03-09T14:38:05.802Z,4.43
2018-03-09T14:40:33.415Z,4.00
2018-03-09T14:43:01.042Z,3.83
2018-03-09T14:45:28.647Z,3.10
2018-03-09T14:47:56.258Z,3.40
2018-03-09T14:50:23.871Z,3.30
2018-03-09T14:52:51.513Z,2.73
2018-03-09T14:55:19.155Z,3.60
2018-03-09T14:57:46.803Z,4.37
2018-03-09T15:00:14.414Z,3.93
2018-03-09T15:02:42.044Z,3.07
2018-03-09T15:05:09.645Z,3.03
2018-03-09T15:07:37.346Z,3.33
2018-03-09T15:10:04.944Z,3.70
2018-03-09T15:12:32.559Z,3.53
2018-03-09T15:15:00.172Z,3.50
2018-03-09T15:17:27.878Z,2.97
2018-03-09T15:19:55.394Z,3.87
2018-03-09T15:22:23.056Z,3.03
2018-03-09T15:24:50.686Z,3.13
2018-03-09T15:27:18.303Z,4.80
2018-03-09T15:29:45.906Z,3.80
2018-03-09T15:32:13.544Z,3.93
2018-03-09T15:34:41.170Z,3.60
2018-03-09T15:37:08.798Z,4.00
2018-03-09T15:39:36.398Z,4.70
2018-03-09T15:42:04.034Z,4.97
2018-03-09T15:44:31.663Z,4.50
2018-03-09T15:46:59.301Z,5.07
2018-03-09T15:49:26.974Z,5.60
2018-03-09T15:51:54.937Z,6.47
2018-03-09T15:54:22.530Z,4.93
2018-03-09T15:56:50.147Z,5.43
2018-03-09T15:59:17.772Z,5.93
2018-03-09T16:01:45.499Z,6.63
2018-03-09T16:04:13.143Z,6.33
2018-03-09T16:06:40.791Z,5.40
2018-03-09T16:09:08.380Z,5.70
2018-03-09T16:11:36.034Z,5.67
2018-03-09T16:14:03.655Z,5.80
2018-03-09T16:16:31.410Z,5.27
2018-03-09T16:18:58.995Z,5.60
2018-03-09T16:21:26.956Z,7.30
2018-03-09T16:23:54.539Z,6.50
2018-03-09T16:26:22.276Z,7.03
2018-03-09T16:28:49.880Z,8.77
2018-03-09T16:31:17.669Z,12.73
2018-03-09T16:33:45.309Z,9.40
2018-03-09T16:36:12.954Z,6.43
2018-03-09T16:38:40.563Z,6.30
2018-03-09T16:41:08.184Z,6.40
2018-03-09T16:43:35.770Z,7.43
2018-03-09T16:46:03.378Z,6.27
2018-03-09T16:48:31.115Z,8.13
2018-03-09T16:50:58.792Z,6.70
2018-03-09T16:53:26.390Z,7.60
2018-03-09T16:55:54.023Z,9.60
2018-03-09T16:58:21.618Z,9.00
2018-03-09T17:00:49.262Z,7.70
2018-03-09T17:03:16.861Z,7.13
2018-03-09T17:05:44.506Z,6.93
2018-03-09T17:08:12.095Z,7.77
2018-03-09T17:10:39.722Z,7.53
2018-03-09T17:13:07.404Z,8.57
2018-03-09T17:15:35.084Z,6.90
2018-03-09T17:18:02.735Z,8.00
2018-03-09T17:20:30.376Z,7.87
2018-03-09T17:22:57.996Z,8.83
2018-03-09T17:25:25.711Z,8.37
2018-03-09T17:27:53.342Z,9.10
2018-03-09T17:30:20.971Z,8.10
2018-03-09T17:32:48.595Z,7.30
2018-03-09T17:35:16.224Z,8.83
2018-03-09T17:37:43.839Z,9.10
2018-03-09T17:40:11.439Z,9.00
2018-03-09T17:42:39.027Z,8.70
2018-03-09T17:45:06.663Z,8.50
2018-03-09T17:47:34.251Z,9.53
2018-03-09T17:50:01.879Z,9.13
2018-03-09T17:52:29.594Z,9.17
2018-03-09T17:54:58.183Z,9.80
2018-03-09T17:57:25.870Z,10.30
2018-03-09T17:59:53.451Z,10.90
2018-03-09T18:02:21.063Z,9.60
2018-03-09T18:04:48.727Z,10.67
2018-03-09T18:07:16.340Z,9.60
2018-03-09T18:09:43.967Z,11.43
2018-03-09T18:12:11.668Z,11.70
2018-03-09T18:14:39.333Z,11.30
2018-03-09T18:17:06.919Z,8.97
2018-03-09T18:19:34.592Z,11.30
2018-03-09T18:22:02.195Z,11.40
2018-03-09T18:24:30.198Z,11.27
2018-03-09T18:26:57.791Z,9.63
2018-03-09T18:29:25.566Z,12.17
2018-03-09T18:31:53.170Z,11.30
2018-03-09T18:34:20.790Z,11.50
2018-03-09T18:36:48.413Z,11.70
2018-03-09T18:39:16.043Z,12.20
2018-03-09T18:41:43.750Z,11.20
2018-03-09T18:44:11.381Z,12.17
2018-03-09T18:46:40.289Z,12.97
2018-03-09T18:49:09.509Z,12.20
2018-03-09T18:51:37.120Z,13.00
2018-03-09T18:54:04.775Z,12.97
2018-03-09T18:56:32.372Z,14.77
2018-03-09T18:59:00.001Z,12.90
2018-03-09T19:01:27.636Z,11.83
2018-03-09T19:03:55.372Z,12.20
2018-03-09T19:06:22.992Z,12.93
2018-03-09T19:08:50.644Z,13.70
2018-03-09T19:11:18.258Z,13.33
2018-03-09T19:13:45.892Z,14.43
2018-03-09T19:16:13.519Z,13.33
2018-03-09T19:18:41.150Z,14.30
2018-03-09T19:21:08.807Z,14.53
2018-03-09T19:23:36.430Z,15.33
2018-03-09T19:26:04.029Z,13.93
2018-03-09T19:28:31.683Z,12.77
2018-03-09T19:30:59.325Z,12.73
2018-03-09T19:33:27.054Z,13.70
2018-03-09T19:35:54.671Z,13.90
2018-03-09T19:38:22.292Z,13.97
2018-03-09T19:40:49.954Z,14.00
2018-03-09T19:43:17.606Z,13.30
2018-03-09T19:45:45.222Z,14.37
2018-03-09T19:48:12.930Z,13.53
2018-03-09T19:50:40.535Z,13.57
2018-03-09T19:53:08.215Z,13.20
2018-03-09T19:55:35.826Z,13.73
2018-03-09T19:58:03.458Z,13.33
2018-03-09T20:00:31.079Z,14.30
2018-03-09T20:02:58.744Z,15.73
2018-03-09T20:05:26.363Z,16.13
2018-03-09T20:07:54.036Z,15.97
2018-03-09T20:10:21.631Z,17.13
2018-03-09T20:12:49.279Z,15.27
2018-03-09T20:15:16.882Z,17.60
2018-03-09T20:17:44.551Z,15.60
2018-03-09T20:20:12.165Z,14.17
2018-03-09T20:22:39.790Z,15.00
2018-03-09T20:25:07.343Z,15.73
2018-03-09T20:27:35.083Z,15.10
2018-03-09T20:30:02.694Z,16.93
2018-03-09T20:32:30.399Z,16.03
2018-03-09T20:34:57.995Z,15.73
2018-03-09T20:37:25.599Z,14.93
2018-03-09T20:39:53.247Z,16.87
2018-03-09T20:42:20.913Z,15.17
2018-03-09T20:44:48.546Z,15.73
2018-03-09T20:47:16.154Z,21.33
2018-03-09T20:49:43.810Z,19.60
2018-03-09T20:52:11.477Z,17.50
2018-03-09T20:54:39.118Z,16.60
2018-03-09T20:57:06.728Z,16.70
2018-03-09T20:59:34.401Z,14.63
2018-03-09T21:02:01.998Z,17.97
2018-03-09T21:04:29.626Z,16.20
2018-03-09T21:06:57.263Z,19.07
2018-03-09T21:09:24.870Z,18.23
2018-03-09T21:11:52.502Z,19.47
2018-03-09T21:14:20.124Z,17.90
2018-03-09T21:16:47.758Z,24.60
2018-03-09T21:19:15.370Z,22.90
2018-03-09T21:21:42.954Z,17.67
2018-03-09T21:24:10.585Z,16.00
2018-03-09T21:26:38.238Z,18.97
2018-03-09T21:29:05.890Z,17.43
2018-03-09T21:31:33.550Z,18.13
2018-03-09T21:34:01.178Z,17.97
2018-03-09T21:36:28.809Z,18.97
2018-03-09T21:38:56.428Z,21.13
2018-03-09T21:41:24.050Z,19.50
2018-03-09T21:43:51.658Z,17.60
2018-03-09T21:46:19.290Z,19.60
2018-03-09T21:48:46.894Z,18.43
2018-03-09T21:51:14.522Z,17.60
2018-03-09T21:53:42.164Z,19.67
2018-03-09T21:56:09.790Z,18.40
2018-03-09T21:58:37.409Z,21.27
2018-03-09T22:01:05.012Z,20.07
2018-03-09T22:03:32.642Z,21.20
2018-03-09T22:06:00.274Z,19.97
2018-03-09T22:08:27.919Z,19.53
2018-03-09T22:10:55.532Z,17.93
2018-03-09T22:13:23.167Z,19.40
2018-03-09T22:15:50.775Z,20.27
2018-03-09T22:18:18.410Z,20.73
2018-03-09T22:20:46.022Z,20.13
2018-03-09T22:23:13.661Z,21.93
2018-03-09T22:25:41.265Z,21.10
2018-03-09T22:28:08.901Z,21.20
2018-03-09T22:30:36.511Z,20.90
2018-03-09T22:33:04.416Z,20.07
2018-03-09T22:35:32.041Z,23.27
2018-03-09T22:37:59.812Z,19.40
2018-03-09T22:40:27.486Z,21.23
2018-03-09T22:42:55.122Z,21.53
2018-03-09T22:45:22.891Z,21.53
2018-03-09T22:47:50.536Z,21.10
2018-03-09T22:50:18.134Z,20.97
2018-03-09T22:52:45.796Z,20.63
2018-03-09T22:55:13.399Z,23.50
2018-03-09T22:57:41.146Z,20.00
2018-03-09T23:00:08.752Z,21.47
2018-03-09T23:02:36.373Z,23.30
2018-03-09T23:05:03.970Z,21.47
2018-03-09T23:07:31.590Z,21.93
2018-03-09T23:09:59.230Z,19.93
2018-03-09T23:12:26.863Z,21.23
2018-03-09T23:14:54.459Z,19.80
2018-03-09T23:17:22.085Z,20.97
2018-03-09T23:19:49.706Z,20.50
2018-03-09T23:22:17.329Z,22.93
2018-03-09T23:24:45.053Z,21.17
2018-03-09T23:27:12.698Z,22.73
2018-03-09T23:29:40.502Z,19.20
2018-03-09T23:32:08.130Z,19.90
2018-03-09T23:34:35.754Z,23.10
2018-03-09T23:37:03.385Z,20.77
2018-03-09T23:39:30.982Z,21.43
2018-03-09T23:41:58.706Z,21.57
2018-03-09T23:44:26.301Z,21.57
2018-03-09T23:46:53.960Z,23.70
2018-03-09T23:49:21.554Z,20.00
2018-03-09T23:51:49.258Z,21.87
2018-03-09T23:54:16.886Z,21.27
2018-03-09T23:56:44.473Z,23.47
2018-03-09T23:59:12.100Z,21.40
